Time;durP1;ratioP1;P1;durP2;ratioP2;P2;SDS_P1;SDS_P2;PMS_P1;PMS_P2;Temp;Humidity;BMP_temperature;BMP_pressure;BME280_temperature;BME280_humidity;BME280_pressure;Samples;Min_cycle;Max_cycle;Signal;HPM_P1;HPM_P2
2021/12/12 00:00:15;;;;;;;96.30;58.75;;;;;;;1.07;84.68;100916.14;2882626;82;20996;-70
2021/12/12 00:04:22;;;;;;;95.80;57.20;;;;;;;1.25;84.53;100924.72;2883876;82;21055;-70
2021/12/12 00:08:24;;;;;;;96.17;55.58;;;;;;;1.39;83.53;100915.55;2884548;82;20965;-70
2021/12/12 00:12:31;;;;;;;101.12;59.63;;;;;;;1.52;82.66;100916.83;2884358;82;21007;-69
2021/12/12 00:16:33;;;;;;;103.27;61.80;;;;;;;1.56;81.80;100913.19;2884363;82;21013;-69
2021/12/12 00:20:37;;;;;;;107.32;62.03;;;;;;;1.50;80.12;100916.50;2884536;82;20993;-69
2021/12/12 00:24:41;;;;;;;105.20;65.85;;;;;;;1.40;79.82;100921.20;2884350;82;21024;-69
2021/12/12 00:28:43;;;;;;;110.48;64.03;;;;;;;1.33;79.59;100926.22;2884408;82;21024;-69
2021/12/12 00:32:45;;;;;;;94.50;59.50;;;;;;;1.32;78.85;100920.14;2884319;82;21493;-70
2021/12/12 00:36:46;;;;;;;93.60;57.53;;;;;;;1.28;78.67;100919.38;2884500;82;20976;-71
2021/12/12 00:40:52;;;;;;;87.85;56.35;;;;;;;1.27;78.40;100924.22;2884182;82;21067;-69
2021/12/12 00:44:58;;;;;;;89.52;56.75;;;;;;;1.24;77.60;100927.38;2884535;82;21023;-70
2021/12/12 00:49:00;;;;;;;94.00;59.05;;;;;;;1.14;76.38;100938.17;2855470;82;21040;-69
2021/12/12 00:53:06;;;;;;;84.13;49.05;;;;;;;1.02;75.75;100941.64;2884545;82;21083;-71
2021/12/12 00:57:12;;;;;;;79.10;47.80;;;;;;;0.88;74.26;100954.70;2884315;82;21055;-70
2021/12/12 01:01:25;;;;;;;88.20;50.00;;;;;;;0.74;74.11;100949.02;2884383;82;21016;-69
2021/12/12 01:05:27;;;;;;;104.03;59.23;;;;;;;0.59;75.19;100953.84;2884186;82;21044;-72
2021/12/12 01:09:34;;;;;;;105.03;60.33;;;;;;;0.37;76.25;100952.28;2884171;82;21052;-70
2021/12/12 01:13:36;;;;;;;92.78;56.45;;;;;;;0.13;77.00;100964.70;2884326;82;21024;-70
2021/12/12 01:17:43;;;;;;;96.42;51.70;;;;;;;0.00;76.02;100969.88;2883984;82;21004;-72
2021/12/12 01:21:48;;;;;;;;;;;;;;;-0.11;75.66;100966.67;2886797;82;21055;-70
2021/12/12 01:25:53;;;;;;;96.97;56.05;;;;;;;-0.22;76.40;100961.26;2884331;82;20085;-71
2021/12/12 01:29:54;;;;;;;92.15;51.30;;;;;;;-0.37;78.71;100962.98;2884292;82;21028;-69
2021/12/12 01:34:09;;;;;;;75.62;43.85;;;;;;;-0.54;77.25;100964.70;2884365;82;21044;-70
2021/12/12 01:42:32;;;;;;;97.55;59.27;;;;;;;-0.89;77.24;100961.58;2814956;82;21099;-71
2021/12/12 01:46:38;;;;;;;87.60;53.65;;;;;;;-0.98;77.72;100959.63;2878293;82;21047;-71
2021/12/12 01:50:48;;;;;;;80.62;47.73;;;;;;;-0.97;78.00;100943.93;2888881;82;21023;-71
2021/12/12 01:54:58;;;;;;;87.55;47.48;;;;;;;-1.08;77.12;100938.08;2889071;82;20976;-69
2021/12/12 01:59:05;;;;;;;82.37;51.00;;;;;;;-1.19;76.88;100930.06;2889166;82;21019;-72
2021/12/12 02:03:08;;;;;;;;;;;;;;;-1.43;82.53;100935.37;2891673;82;21488;-70
2021/12/12 02:07:14;;;;;;;93.50;52.58;;;;;;;-1.42;79.95;100928.41;2889123;82;20081;-71
2021/12/12 02:11:21;;;;;;;92.22;56.63;;;;;;;-1.42;78.09;100926.65;2889100;82;21051;-70
2021/12/12 02:15:24;;;;;;;80.05;51.13;;;;;;;-1.44;77.06;100920.61;2889105;82;20988;-71
2021/12/12 02:19:39;;;;;;;86.10;52.23;;;;;;;-1.53;77.13;100909.08;2889062;82;21043;-70
2021/12/12 02:23:57;;;;;;;92.00;52.23;;;;;;;-1.70;79.22;100912.89;2861107;82;21071;-72
2021/12/12 02:36:24;;;;;;;101.53;57.20;;;;;;;-2.79;82.36;100921.84;2888653;82;21031;-72
2021/12/12 02:40:37;;;;;;;101.97;61.02;;;;;;;-3.12;81.98;100937.95;2888823;82;21012;-71
2021/12/12 02:44:42;;;;;;;99.87;66.12;;;;;;;-3.12;81.98;100937.95;2883132;82;21046;-72
2021/12/12 02:48:47;;;;;;;108.25;60.10;;;;;;;-2.84;81.32;100960.96;2883856;82;21091;-68
2021/12/12 02:52:53;;;;;;;115.95;61.83;;;;;;;-2.76;79.98;100953.88;2884231;82;21059;-71
2021/12/12 02:56:55;;;;;;;85.32;49.80;;;;;;;-2.64;81.10;100972.39;2884272;82;21011;-71
2021/12/12 03:01:19;;;;;;;91.15;55.70;;;;;;;-2.56;78.75;100974.84;2884131;82;21051;-71
2021/12/12 03:05:21;;;;;;;86.65;52.88;;;;;;;-2.52;78.65;100973.05;2884399;82;20968;-69
2021/12/12 03:09:36;;;;;;;90.55;57.58;;;;;;;-2.44;79.03;100969.89;2884667;82;21489;-69
2021/12/12 03:13:39;;;;;;;92.60;57.45;;;;;;;-2.37;78.89;100974.11;2884413;82;21063;-71
2021/12/12 03:17:45;;;;;;;99.45;59.15;;;;;;;-2.31;79.01;100980.50;2883990;82;21067;-72
2021/12/12 03:21:48;;;;;;;100.35;56.77;;;;;;;-2.29;78.85;100976.58;2884376;82;21615;-71
2021/12/12 03:25:55;;;;;;;92.05;56.77;;;;;;;-2.34;79.19;100979.26;2883868;82;21047;-71
2021/12/12 03:29:57;;;;;;;103.30;59.93;;;;;;;-2.23;79.50;100977.77;2884050;82;21067;-71
2021/12/12 03:34:00;;;;;;;87.20;54.93;;;;;;;-2.10;79.03;100990.60;2883490;82;20988;-73
2021/12/12 03:38:03;;;;;;;92.85;59.98;;;;;;;-2.04;78.78;100986.14;2884290;82;21060;-72
2021/12/12 03:42:10;;;;;;;106.43;57.93;;;;;;;-2.07;77.37;100987.47;2884059;82;21083;-72
2021/12/12 03:46:12;;;;;;;92.88;57.23;;;;;;;-2.20;77.29;100993.81;2884044;82;21052;-69
2021/12/12 03:50:22;;;;;;;92.20;51.85;;;;;;;-2.27;76.46;100990.88;2884218;82;21061;-71
2021/12/12 03:54:24;;;;;;;98.52;57.10;;;;;;;-2.36;76.26;100995.80;2884242;82;20992;-71
2021/12/12 03:58:26;;;;;;;91.82;53.15;;;;;;;-2.30;76.48;100996.56;2884287;82;20937;-72
2021/12/12 04:02:28;;;;;;;106.25;63.20;;;;;;;-2.28;77.86;101004.36;2884594;82;20984;-70
2021/12/12 04:06:30;;;;;;;93.45;56.88;;;;;;;-2.22;77.56;101009.92;2884449;82;20988;-72
2021/12/12 04:10:33;;;;;;;82.80;49.88;;;;;;;-2.12;77.49;101015.38;2884442;82;21075;-72
2021/12/12 04:14:36;;;;;;;69.60;45.75;;;;;;;-2.11;76.97;101019.70;2884003;82;21000;-71
2021/12/12 04:18:38;;;;;;;79.15;43.23;;;;;;;-2.30;76.16;101021.78;2884088;82;21000;-71
2021/12/12 04:22:40;;;;;;;74.87;45.12;;;;;;;-2.48;76.16;101028.12;2884039;82;21055;-71
2021/12/12 04:26:43;;;;;;;61.58;40.75;;;;;;;-2.50;76.44;101031.20;2884079;82;20976;-71
2021/12/12 04:30:46;;;;;;;61.53;39.70;;;;;;;-2.50;75.90;101028.17;2884171;82;21547;-70
2021/12/12 04:34:53;;;;;;;64.62;40.33;;;;;;;-2.40;75.83;101016.28;2884148;82;21036;-72
2021/12/12 04:39:05;;;;;;;63.08;40.65;;;;;;;-2.37;77.63;101008.41;2883975;82;21033;-71
2021/12/12 04:43:06;;;;;;;66.85;45.55;;;;;;;-2.35;79.04;101011.42;2884100;82;21564;-71
2021/12/12 04:51:59;;;;;;;72.17;50.35;;;;;;;-2.48;77.74;101015.98;2884228;82;21008;-71
2021/12/12 04:56:28;;;;;;;59.65;38.30;;;;;;;-2.55;77.93;101023.48;2884140;82;20937;-69
2021/12/12 05:00:35;;;;;;;58.87;33.40;;;;;;;-2.91;75.84;101039.60;2884562;82;21488;-70
2021/12/12 05:04:57;;;;;;;54.65;34.53;;;;;;;-3.35;77.64;101037.98;2881053;82;21000;-70
2021/12/12 05:09:27;;;;;;;52.40;35.65;;;;;;;-3.63;78.82;101033.11;2884215;82;21090;-72
2021/12/12 05:13:40;;;;;;;57.75;37.30;;;;;;;-3.54;79.58;101037.36;2884019;82;21040;-71
2021/12/12 05:17:55;;;;;;;69.90;43.83;;;;;;;-3.76;82.57;101045.81;2884137;82;21023;-71
2021/12/12 05:22:02;;;;;;;76.50;39.40;;;;;;;-3.92;83.87;101044.69;2729694;87;21028;-71
2021/12/12 05:26:09;;;;;;;69.50;34.63;;;;;;;-4.06;84.46;101036.15;2730189;87;21114;-69
2021/12/12 05:30:16;;;;;;;72.20;41.83;;;;;;;-4.02;84.54;101036.54;2730642;87;21052;-71
2021/12/12 05:34:19;;;;;;;;;;;;;;;-3.89;84.87;101043.78;2732972;87;21045;-71
2021/12/12 05:38:25;;;;;;;68.12;37.60;;;;;;;-3.62;86.47;101043.94;2730569;87;20112;-71
2021/12/12 05:42:27;;;;;;;68.72;38.13;;;;;;;-3.54;85.05;101048.19;2730267;87;21088;-72
2021/12/12 05:46:30;;;;;;;53.30;34.50;;;;;;;-3.65;83.78;101055.67;2729830;87;21072;-71
2021/12/12 05:50:32;;;;;;;63.15;34.83;;;;;;;-3.87;83.94;101065.42;2730430;87;21040;-70
2021/12/12 05:54:34;;;;;;;52.08;28.70;;;;;;;-4.09;84.95;101061.72;2730040;87;21068;-71
2021/12/12 05:58:38;;;;;;;51.48;28.85;;;;;;;-4.17;84.85;101069.58;2837377;82;21652;-72
2021/12/12 06:02:42;;;;;;;54.05;28.27;;;;;;;-4.31;84.61;101070.98;2884157;82;21039;-71
2021/12/12 06:06:45;;;;;;;47.62;30.65;;;;;;;-4.27;84.73;101074.44;2884191;82;21028;-71
2021/12/12 06:10:48;;;;;;;42.83;24.45;;;;;;;-4.26;85.91;101079.17;2884142;82;21012;-71
2021/12/12 06:14:51;;;;;;;39.23;23.07;;;;;;;-4.14;86.92;101094.69;2884142;82;20984;-71
2021/12/12 06:18:58;;;;;;;60.17;32.13;;;;;;;-4.00;86.37;101093.72;2884248;82;20968;-71
2021/12/12 06:23:00;;;;;;;49.30;30.10;;;;;;;-3.83;84.26;101100.94;2890244;81;21049;-71
2021/12/12 06:27:10;;;;;;;46.92;27.87;;;;;;;-3.69;83.17;101099.50;2886796;82;21014;-72
2021/12/12 06:31:12;;;;;;;42.98;25.82;;;;;;;-3.56;82.47;101097.64;2836624;84;20995;-71
2021/12/12 06:35:16;;;;;;;51.88;27.02;;;;;;;-3.41;81.46;101100.97;2825181;84;21072;-70
2021/12/12 06:39:20;;;;;;;40.40;25.08;;;;;;;-3.35;80.34;101108.23;2836164;84;21024;-71
2021/12/12 06:43:23;;;;;;;37.80;25.57;;;;;;;-3.16;79.91;101110.63;2825185;84;21103;-71
2021/12/12 06:47:25;;;;;;;55.70;29.60;;;;;;;-3.04;78.28;101111.80;2836079;84;21044;-69
2021/12/12 06:51:29;;;;;;;52.10;28.35;;;;;;;-3.04;76.70;101115.70;2799323;84;21051;-72
2021/12/12 06:55:32;;;;;;;52.03;31.17;;;;;;;-3.05;76.59;101120.50;2836404;84;20981;-70
2021/12/12 06:59:38;;;;;;;70.45;40.20;;;;;;;-2.97;76.96;101124.73;2825418;84;20976;-70
2021/12/12 07:03:40;;;;;;;84.03;42.17;;;;;;;-3.10;75.87;101130.53;2836658;84;21039;-72
2021/12/12 07:07:42;;;;;;;69.47;38.33;;;;;;;-3.41;77.35;101127.83;2825391;83;21115;-70
2021/12/12 07:11:45;;;;;;;69.25;44.00;;;;;;;-3.64;79.48;101133.24;2808433;84;21019;-70
2021/12/12 07:15:55;;;;;;;73.67;49.23;;;;;;;-3.73;80.17;101126.42;2825333;84;21041;-71
2021/12/12 07:19:58;;;;;;;84.85;50.83;;;;;;;-3.72;81.37;101132.05;2836467;84;20983;-70
2021/12/12 07:24:03;;;;;;;98.45;59.93;;;;;;;-3.63;81.79;101133.24;2825194;84;21075;-71
2021/12/12 07:28:06;;;;;;;83.67;45.10;;;;;;;-3.55;82.49;101129.27;2836476;84;20964;-71
2021/12/12 07:32:08;;;;;;;93.70;52.08;;;;;;;-3.43;82.27;101128.28;2825659;84;21028;-70
2021/12/12 07:36:12;;;;;;;83.42;48.92;;;;;;;-3.32;81.90;101144.66;2836750;84;21079;-69
2021/12/12 07:40:15;;;;;;;65.67;35.78;;;;;;;-3.18;82.72;101147.11;2826083;84;21035;-71
2021/12/12 07:44:21;;;;;;;68.70;31.97;;;;;;;-3.01;82.29;101147.36;2836508;84;21078;-71
2021/12/12 07:48:24;;;;;;;79.35;40.03;;;;;;;-2.97;80.95;101145.14;2825779;84;21096;-71
2021/12/12 07:52:28;;;;;;;80.12;42.85;;;;;;;-3.02;81.16;101146.48;2836447;84;21032;-70
2021/12/12 07:56:34;;;;;;;111.72;54.30;;;;;;;-3.10;82.15;101143.55;2826064;84;20973;-71
2021/12/12 08:00:38;;;;;;;138.03;71.40;;;;;;;-3.13;82.79;101139.69;2836916;84;21071;-71
2021/12/12 08:04:41;;;;;;;106.40;59.67;;;;;;;-3.03;83.82;101145.22;2825690;84;21047;-71
2021/12/12 08:08:44;;;;;;;95.72;51.05;;;;;;;-2.82;83.78;101146.69;2836911;84;21032;-70
2021/12/12 08:12:46;;;;;;;80.83;45.67;;;;;;;-2.47;83.61;101149.70;2799703;83;21055;-71
2021/12/12 08:16:49;;;;;;;63.15;39.13;;;;;;;-2.20;83.09;101154.97;2837201;84;21004;-71
2021/12/12 08:20:52;;;;;;;71.35;42.60;;;;;;;-1.91;82.92;101171.05;2825424;84;21027;-70
2021/12/12 08:24:58;;;;;;;71.33;45.30;;;;;;;-1.66;83.17;101170.22;2836758;84;21036;-71
2021/12/12 08:29:00;;;;;;;62.87;36.93;;;;;;;-1.38;82.65;101173.64;2826071;84;21056;-72
2021/12/12 08:33:05;;;;;;;58.23;36.38;;;;;;;-1.13;81.43;101171.91;2836918;84;20996;-70
2021/12/12 08:37:07;;;;;;;66.62;37.17;;;;;;;-0.94;80.02;101170.25;2825889;84;20984;-71
2021/12/12 08:41:09;;;;;;;74.32;43.40;;;;;;;-0.70;80.25;101173.26;2836718;84;21122;-71
2021/12/12 08:45:15;;;;;;;74.45;47.70;;;;;;;-0.42;80.79;101177.89;2825372;84;21032;-70
2021/12/12 08:49:20;;;;;;;84.37;46.02;;;;;;;-0.11;80.66;101188.98;2887068;81;21000;-72
2021/12/12 08:53:23;;;;;;;76.50;49.48;;;;;;;0.21;81.29;101192.16;2937208;81;21007;-71
2021/12/12 09:01:52;;;;;;;49.50;30.65;;;;;;;0.84;80.60;101196.23;2937929;81;21503;-70
2021/12/12 09:05:55;;;;;;;62.17;37.30;;;;;;;1.14;79.90;101195.44;2937519;81;21457;-71
2021/12/12 09:10:18;;;;;;;81.22;49.85;;;;;;;1.44;80.15;101192.87;2937302;81;21015;-75
2021/12/12 09:14:25;;;;;;;68.47;41.90;;;;;;;1.68;79.08;101205.72;2933883;81;21002;-73
2021/12/12 09:18:33;;;;;;;50.98;31.50;;;;;;;1.90;77.71;101205.50;2879535;82;21050;-69
2021/12/12 09:22:41;;;;;;;43.60;30.55;;;;;;;2.06;76.51;101213.30;2880268;82;21053;-71
2021/12/12 09:26:48;;;;;;;45.45;32.10;;;;;;;2.19;75.70;101209.83;2933170;80;21061;-73
2021/12/12 09:30:51;;;;;;;44.88;31.45;;;;;;;2.16;75.20;101203.37;2933697;81;21037;-69
2021/12/12 09:34:58;;;;;;;48.85;30.40;;;;;;;2.21;75.67;101197.52;2933690;81;20950;-71
2021/12/12 09:39:24;;;;;;;43.83;28.32;;;;;;;2.30;75.70;101184.54;2933200;81;21030;-70
2021/12/12 09:44:04;;;;;;;43.50;28.20;;;;;;;2.50;75.95;101185.64;2932071;81;21176;-68
2021/12/12 09:53:11;;;;;;;56.50;37.98;;;;;;;2.62;74.74;101166.85;2908738;82;21015;-70
2021/12/12 09:57:40;;;;;;;57.40;40.48;;;;;;;2.27;73.87;101163.20;2908769;82;20971;-71
2021/12/12 10:02:23;;;;;;;72.37;45.80;;;;;;;1.82;75.19;101151.51;2910746;81;20975;-68
2021/12/12 10:07:09;;;;;;;77.53;49.63;;;;;;;1.62;75.44;101149.48;2925423;81;21448;-71
2021/12/12 10:11:28;;;;;;;93.55;60.70;;;;;;;1.26;76.47;101152.30;2924943;81;21068;-69
2021/12/12 10:15:35;;;;;;;91.55;57.55;;;;;;;1.20;77.48;101144.19;2924637;81;21008;-69
2021/12/12 10:19:45;;;;;;;101.20;54.48;;;;;;;1.30;77.55;101145.21;2923672;81;21042;-69
2021/12/12 10:24:12;;;;;;;102.87;59.10;;;;;;;1.42;77.68;101135.69;2925888;81;20977;-71
2021/12/12 10:28:35;;;;;;;257.40;125.07;;;;;;;1.51;77.70;101144.56;2925738;81;21027;-70
2021/12/12 10:33:16;;;;;;;269.43;138.95;;;;;;;1.80;77.23;101135.39;2921382;81;21020;-71
2021/12/12 10:37:35;;;;;;;505.85;279.82;;;;;;;1.98;77.05;101137.44;2925838;81;20985;-70
2021/12/12 10:41:49;;;;;;;266.63;134.35;;;;;;;2.28;76.95;101132.09;2924294;81;20996;-70
2021/12/12 10:45:59;;;;;;;106.47;57.80;;;;;;;2.49;77.19;101133.59;2924779;81;21040;-70
2021/12/12 10:50:30;;;;;;;71.95;36.75;;;;;;;2.76;77.07;101137.46;2903808;81;21081;-72
2021/12/12 10:54:57;;;;;;;36.25;21.65;;;;;;;3.03;76.51;101129.48;2828501;84;21002;-69
2021/12/12 10:59:07;;;;;;;25.02;16.25;;;;;;;3.34;76.53;101124.41;2875479;81;21003;-69
2021/12/12 11:03:26;;;;;;;20.65;14.75;;;;;;;3.53;75.82;101122.38;2823445;84;20951;-70
2021/12/12 11:07:51;;;;;;;27.40;17.37;;;;;;;3.72;75.64;101123.81;2823966;84;21002;-69
2021/12/12 11:12:10;;;;;;;20.85;15.55;;;;;;;3.94;75.44;101116.39;2824193;84;20998;-70
2021/12/12 11:16:18;;;;;;;19.62;14.73;;;;;;;4.07;74.82;101108.37;2823642;84;20994;-71
2021/12/12 11:20:25;;;;;;;26.75;16.05;;;;;;;4.10;73.74;101109.55;2824209;84;21006;-68
2021/12/12 11:24:35;;;;;;;28.20;16.95;;;;;;;4.12;73.90;101106.39;2823703;84;21014;-69
2021/12/12 11:28:43;;;;;;;28.40;16.27;;;;;;;4.18;73.75;101103.13;2823009;84;21010;-68
2021/12/12 11:32:46;;;;;;;24.60;15.98;;;;;;;4.25;73.83;101102.81;2823430;84;21066;-70
2021/12/12 11:37:43;;;;;;;29.35;17.00;;;;;;;4.39;74.25;101099.58;2823930;84;21041;-68
2021/12/12 11:42:03;;;;;;;17.93;13.50;;;;;;;4.53;73.98;101095.02;2866665;82;21034;-69
2021/12/12 11:46:33;;;;;;;20.30;15.80;;;;;;;4.70;73.03;101088.16;2834007;84;30629;-69
2021/12/12 11:50:46;;;;;;;21.12;14.85;;;;;;;4.81;73.08;101091.64;2822296;84;21016;-70
2021/12/12 11:55:09;;;;;;;20.25;15.58;;;;;;;4.90;72.53;101084.62;2837532;84;21397;-71
2021/12/12 11:59:36;;;;;;;26.93;15.28;;;;;;;4.99;72.53;101090.81;2788819;85;21095;-69
2021/12/12 12:04:19;;;;;;;24.57;16.23;;;;;;;5.06;72.49;101086.56;2788233;85;21054;-72
2021/12/12 12:08:29;;;;;;;20.82;14.70;;;;;;;5.17;72.25;101082.11;2826657;84;21745;-70
2021/12/12 12:12:55;;;;;;;22.37;13.58;;;;;;;5.19;71.92;101074.98;2876236;82;21011;-72
2021/12/12 12:17:13;;;;;;;20.25;14.28;;;;;;;5.25;71.95;101078.66;2882477;82;21081;-72
2021/12/12 12:21:34;;;;;;;20.68;13.62;;;;;;;5.32;72.23;101077.92;2881450;82;21055;-71
2021/12/12 12:30:48;;;;;;;24.30;16.52;;;;;;;5.42;71.77;101072.58;2885674;82;21626;-71
2021/12/12 12:35:12;;;;;;;23.10;15.35;;;;;;;5.24;69.96;101080.44;2885533;82;20995;-71
2021/12/12 12:39:41;;;;;;;34.60;16.95;;;;;;;5.12;70.40;101075.75;2827615;82;21022;-72
2021/12/12 12:44:22;;;;;;;27.17;15.20;;;;;;;5.01;71.18;101072.26;2881735;82;20979;-72
2021/12/12 12:49:01;;;;;;;29.60;18.23;;;;;;;5.06;71.54;101076.02;2885599;82;21046;-69
2021/12/12 12:53:54;;;;;;;28.90;20.40;;;;;;;5.14;71.44;101082.64;2884674;82;21002;-72
2021/12/12 12:58:14;;;;;;;37.85;25.05;;;;;;;5.17;70.81;101082.11;2775078;84;21091;-72
2021/12/12 13:02:30;;;;;;;37.83;26.25;;;;;;;5.27;71.37;101072.85;2794373;84;21087;-71
2021/12/12 13:07:14;;;;;;;35.77;24.83;;;;;;;5.30;71.02;101072.70;2841006;82;21030;-69
2021/12/12 13:11:37;;;;;;;33.02;25.52;;;;;;;5.21;70.47;101070.03;2836631;84;21022;-69
2021/12/12 13:16:04;;;;;;;35.78;24.90;;;;;;;5.11;70.46;101071.37;2836701;84;21078;-72
2021/12/12 13:20:13;;;;;;;33.18;23.07;;;;;;;5.03;71.25;101076.16;2906498;81;21002;-71
2021/12/12 13:24:40;;;;;;;40.60;29.42;;;;;;;4.91;70.50;101074.94;2915768;81;21625;-77
2021/12/12 13:29:16;;;;;;;53.63;36.68;;;;;;;4.85;71.41;101078.70;2884703;82;21022;-71
2021/12/12 13:33:46;;;;;;;50.98;29.77;;;;;;;4.85;71.77;101072.11;2874943;82;20994;-71
2021/12/12 13:38:15;;;;;;;64.17;39.35;;;;;;;4.79;71.41;101081.63;2881761;82;20983;-71
2021/12/12 13:42:32;;;;;;;75.47;49.53;;;;;;;4.69;71.23;101075.43;2866271;83;21034;-70
2021/12/12 13:47:10;;;;;;;;;;;;;;;4.68;71.58;101074.20;2871486;82;21046;-72
2021/12/12 13:51:41;;;;;;;72.37;43.02;;;;;;;4.61;71.35;101080.20;2929538;81;20109;-68
2021/12/12 13:56:20;;;;;;;113.50;67.12;;;;;;;4.36;71.62;101090.50;2895712;81;21038;-70
2021/12/12 14:00:27;;;;;;;89.03;60.70;;;;;;;3.94;72.98;101090.08;2836994;84;21017;-69
2021/12/12 14:04:48;;;;;;;131.90;80.20;;;;;;;3.64;73.98;101090.38;2852868;82;21014;-70
2021/12/12 14:08:55;;;;;;;112.37;65.20;;;;;;;3.66;74.27;101088.55;2885857;82;21003;-68
2021/12/12 14:13:07;;;;;;;126.87;73.40;;;;;;;3.66;74.33;101087.23;2885308;82;21062;-69
2021/12/12 14:17:26;;;;;;;134.82;82.53;;;;;;;3.53;74.47;101076.34;2880810;82;21524;-70
2021/12/12 14:21:29;;;;;;;95.72;57.73;;;;;;;3.46;74.63;101078.35;2876198;82;21050;-68
2021/12/12 14:25:33;;;;;;;113.10;70.47;;;;;;;3.22;75.08;101065.69;2871458;82;20967;-68
2021/12/12 14:29:37;;;;;;;87.92;52.10;;;;;;;2.95;75.23;101064.52;2880875;82;21070;-70
2021/12/12 14:33:43;;;;;;;100.25;60.63;;;;;;;2.63;75.63;101061.30;2872536;82;21054;-69
2021/12/12 14:37:50;;;;;;;89.15;54.70;;;;;;;2.37;76.25;101057.41;2876201;82;20998;-69
2021/12/12 14:42:00;;;;;;;116.08;72.45;;;;;;;2.19;77.20;101057.57;2886441;82;21002;-69
2021/12/12 14:46:26;;;;;;;105.67;66.67;;;;;;;2.24;76.99;101069.23;2887765;82;21120;-68
2021/12/12 14:50:36;;;;;;;102.40;66.75;;;;;;;2.12;77.17;101068.73;2891167;82;21074;-68
2021/12/12 14:54:46;;;;;;;117.95;74.50;;;;;;;1.99;77.67;101068.77;2887638;82;21038;-68
2021/12/12 14:58:58;;;;;;;134.05;80.95;;;;;;;2.02;77.54;101058.59;2890901;82;21014;-69
2021/12/12 15:03:05;;;;;;;162.47;94.28;;;;;;;1.99;77.57;101043.36;2890948;82;21014;-69
2021/12/12 15:07:14;;;;;;;165.62;93.82;;;;;;;1.90;78.11;101040.19;2890840;82;21046;-70
2021/12/12 15:11:37;;;;;;;174.12;98.67;;;;;;;1.96;77.46;101046.09;2890822;82;21033;-68
2021/12/12 15:15:50;;;;;;;133.25;78.83;;;;;;;1.94;77.37;101061.03;2891131;82;20986;-68
2021/12/12 15:19:59;;;;;;;141.40;78.67;;;;;;;1.84;77.62;101064.86;2890181;82;20986;-69
2021/12/12 15:24:06;;;;;;;137.75;77.05;;;;;;;1.80;77.61;101079.86;2890058;82;21329;-68
2021/12/12 15:28:13;;;;;;;121.90;76.35;;;;;;;1.75;77.38;101072.58;2889432;82;21033;-69
2021/12/12 15:32:22;;;;;;;106.97;65.92;;;;;;;1.67;78.33;101068.91;2892108;82;20962;-69
2021/12/12 15:36:29;;;;;;;154.93;91.50;;;;;;;1.58;78.71;101061.80;2892061;82;20989;-68
2021/12/12 15:40:37;;;;;;;152.35;99.75;;;;;;;1.53;78.52;101060.63;2892009;82;20935;-70
2021/12/12 15:44:43;;;;;;;130.63;67.55;;;;;;;1.60;78.23;101062.59;2891711;81;21502;-69
2021/12/12 15:49:02;;;;;;;98.85;58.23;;;;;;;1.55;78.45;101068.83;2870252;82;21657;-69
2021/12/12 15:53:12;;;;;;;101.47;52.62;;;;;;;1.49;78.35;101065.09;2869639;83;21042;-69
2021/12/12 15:57:18;;;;;;;98.25;56.48;;;;;;;1.37;78.77;101082.50;2869058;83;21015;-69
2021/12/12 16:01:34;;;;;;;105.75;65.25;;;;;;;1.39;78.83;101075.01;2847816;82;20982;-69
2021/12/12 16:05:44;;;;;;;97.22;56.68;;;;;;;1.43;78.59;101082.34;2836305;83;21022;-69
2021/12/12 16:09:54;;;;;;;112.25;61.60;;;;;;;1.39;78.68;101072.86;2812250;84;21022;-69
2021/12/12 16:14:02;;;;;;;78.37;47.80;;;;;;;1.36;79.04;101071.61;2808585;84;21038;-69
2021/12/12 16:18:05;;;;;;;124.12;70.62;;;;;;;1.34;78.58;101069.49;2809144;84;20955;-69
2021/12/12 16:22:21;;;;;;;136.88;74.75;;;;;;;1.21;78.74;101067.27;2808191;84;21006;-68
2021/12/12 16:26:30;;;;;;;122.10;67.40;;;;;;;1.09;79.11;101068.50;2868167;82;21617;-69
2021/12/12 16:30:37;;;;;;;96.37;64.32;;;;;;;1.11;79.37;101074.55;2868501;82;21663;-69
2021/12/12 16:34:41;;;;;;;118.80;63.33;;;;;;;1.22;79.24;101078.16;2843957;83;21077;-69
2021/12/12 16:38:44;;;;;;;130.90;76.02;;;;;;;1.28;79.45;101082.36;2843864;83;21073;-69
2021/12/12 16:42:54;;;;;;;112.75;68.10;;;;;;;1.33;79.04;101075.20;2849224;83;21003;-69
2021/12/12 16:46:59;;;;;;;102.90;64.65;;;;;;;1.45;78.65;101082.27;2860083;83;21054;-69
2021/12/12 16:51:02;;;;;;;106.12;71.65;;;;;;;1.50;78.55;101081.23;2862500;83;20998;-69
2021/12/12 16:55:12;;;;;;;122.95;68.35;;;;;;;1.52;78.35;101079.88;2862406;83;21570;-69
2021/12/12 16:59:28;;;;;;;113.10;64.85;;;;;;;1.44;78.53;101082.74;2862005;83;21028;-69
2021/12/12 17:03:49;;;;;;;123.25;72.45;;;;;;;1.42;79.04;101078.00;2862288;83;21054;-69
2021/12/12 17:08:03;;;;;;;181.57;104.58;;;;;;;1.40;79.18;101079.34;2862189;83;20959;-69
2021/12/12 17:12:14;;;;;;;164.97;101.27;;;;;;;1.28;79.47;101066.16;2860679;83;21066;-69
2021/12/12 17:16:30;;;;;;;170.55;98.78;;;;;;;1.30;79.29;101054.77;2862401;83;21006;-69
2021/12/12 17:20:41;;;;;;;106.30;63.30;;;;;;;1.19;79.98;101054.66;2862518;83;21054;-69
2021/12/12 17:24:48;;;;;;;94.62;55.52;;;;;;;1.11;80.34;101055.33;2862599;83;21010;-69
2021/12/12 17:28:52;;;;;;;91.95;51.42;;;;;;;1.02;80.71;101042.52;2862533;83;21027;-68
2021/12/12 17:33:17;;;;;;;70.62;44.58;;;;;;;0.92;80.83;101024.44;2862455;83;20995;-68
2021/12/12 17:37:23;;;;;;;75.55;43.58;;;;;;;0.85;81.31;101032.08;2767590;86;21026;-69
2021/12/12 17:41:48;;;;;;;80.22;49.05;;;;;;;0.85;81.49;101047.33;2767806;86;21007;-68
2021/12/12 17:46:29;;;;;;;82.65;49.10;;;;;;;0.93;81.40;101044.48;2721726;87;21055;-69
2021/12/12 17:51:26;;;;;;;72.32;40.65;;;;;;;0.98;80.98;101043.92;2776581;86;21018;-69
2021/12/12 17:56:00;;;;;;;93.40;56.80;;;;;;;0.92;81.57;101042.77;2728823;87;21012;-69
2021/12/12 18:00:31;;;;;;;92.92;60.50;;;;;;;0.99;81.00;101054.81;2776291;86;21026;-69
2021/12/12 18:04:33;;;;;;;94.17;54.53;;;;;;;1.01;81.42;101028.55;2728751;87;21075;-68
2021/12/12 18:09:08;;;;;;;75.45;41.35;;;;;;;0.97;81.38;101021.22;2776768;85;20999;-69
2021/12/12 18:13:30;;;;;;;76.77;41.18;;;;;;;0.92;82.07;101014.42;2782228;84;21069;-69
2021/12/12 18:18:06;;;;;;;80.30;45.73;;;;;;;1.02;81.85;101022.87;2878774;81;20972;-68
2021/12/12 18:22:11;;;;;;;71.90;47.30;;;;;;;1.02;82.14;101034.66;2884164;81;21016;-69
2021/12/12 18:26:48;;;;;;;67.60;44.55;;;;;;;1.07;81.69;101019.17;2887123;82;21020;-69
2021/12/12 18:30:53;;;;;;;60.83;35.50;;;;;;;1.18;81.30;101039.84;2734476;87;21038;-68
2021/12/12 18:35:06;;;;;;;47.93;31.93;;;;;;;1.34;80.76;101036.73;2863116;82;21051;-70
2021/12/12 18:39:13;;;;;;;50.78;30.37;;;;;;;1.29;80.50;101035.58;2887054;82;21032;-68
2021/12/12 18:43:19;;;;;;;55.48;29.75;;;;;;;1.27;81.16;101022.51;2886133;82;21452;-69
2021/12/12 18:47:26;;;;;;;65.47;39.33;;;;;;;1.32;81.39;101024.13;2851568;82;21058;-69
2021/12/12 18:51:46;;;;;;;109.52;66.67;;;;;;;1.45;81.59;101026.77;2874746;82;20995;-69
2021/12/12 18:55:55;;;;;;;134.27;71.40;;;;;;;1.65;81.51;101022.65;2873958;83;21053;-68
2021/12/12 19:00:08;;;;;;;224.85;121.00;;;;;;;1.62;81.66;101017.03;2874505;82;21022;-69
2021/12/12 19:04:15;;;;;;;142.53;80.07;;;;;;;1.78;81.26;101021.78;2808217;83;21020;-68
2021/12/12 19:08:30;;;;;;;98.58;57.60;;;;;;;1.89;81.24;101006.98;2777226;85;21054;-69
2021/12/12 19:12:43;;;;;;;103.78;58.10;;;;;;;1.94;81.48;101007.69;2791497;85;21005;-69
2021/12/12 19:16:52;;;;;;;94.77;53.25;;;;;;;1.96;81.53;101018.54;2845390;82;21026;-68
2021/12/12 19:21:00;;;;;;;111.80;65.20;;;;;;;2.10;81.45;101021.99;2841391;84;21014;-69
2021/12/12 19:25:04;;;;;;;83.92;47.50;;;;;;;2.30;81.48;101012.56;2841124;84;21029;-68
2021/12/12 19:29:12;;;;;;;73.20;43.55;;;;;;;2.39;80.61;101007.44;2841271;84;21018;-69
2021/12/12 19:33:20;;;;;;;66.28;42.30;;;;;;;2.38;80.60;100998.72;2840244;84;21104;-68
2021/12/12 19:37:25;;;;;;;74.05;41.30;;;;;;;2.41;80.65;100988.10;2841174;84;21077;-68